CHICAGO AURORA MUNICIPAL, IL, United States (KARR) 41-46N 088-28W 215M
Wind: Variable at 3 MPH (3 KT):0
Visibility: 10 mile(s):0
Sky conditions: clear
Temperature: 86.0 F (30.0 C)
Dew Point: 59.0 F (15.0 C)
Relative Humidity: 40%
Pressure (altimeter): 30.13 in. Hg (1020 hPa)
Pressure tendency: 0.01 inches (0.5 hPa) lower than three hours ago
ob: KARR 031752Z VRB03KT 10SM CLR 30/15 A3013 RMK AO2 SLP199 T03000150 10300 20189 58005
Raw METAR:KARR 031752Z VRB03KT 10SM CLR 30/15 A3013 RMK AO2 SLP199 T03000150 10300 20189 58005
cycle: 18
Back to top

CHICAGO/WEST CH DUPAGE, IL, United States (KDPA) 41-54N 88-15W 230M
Wind: Calm:0
Visibility: 10 mile(s):0
Sky conditions: partly cloudy
Temperature: 84.9 F (29.4 C)
Dew Point: 60.1 F (15.6 C)
Relative Humidity: 43%
Pressure (altimeter): 30.13 in. Hg (1020 hPa)
Pressure tendency: 0.01 inches (0.5 hPa) lower than three hours ago
ob: KDPA 031752Z 00000KT 10SM SCT050 29/16 A3013 RMK AO2 SLP197 T02940156 10300 20211 58005
Raw METAR:KDPA 031752Z 00000KT 10SM SCT050 29/16 A3013 RMK AO2 SLP197 T02940156 10300 20211 58005
cycle: 18
Back to top

De Kalb, De Kalb Taylor Municipal Airport, IL, United States (KDKB) 41-55-55N 088-42-30W
Wind: from the SW (220 degrees) at 6 MPH (5 KT):0
Visibility: 10 mile(s):0
Sky conditions: clear
Temperature: 85.5 F (29.7 C)
Dew Point: 59.0 F (15.0 C)
Relative Humidity: 40%
Pressure (altimeter): 30.15 in. Hg (1020 hPa)
ob: KDKB 031815Z AUTO 22005KT 10SM CLR 30/15 A3015 RMK AO2 T02970150
Raw METAR:KDKB 031815Z AUTO 22005KT 10SM CLR 30/15 A3015 RMK AO2 T02970150
cycle: 18
Back to top

Joliet, Joliet Regional Airport, IL, United States (KJOT) 41-31-05N 088-10-31W
Wind: Calm:0
Visibility: 10 mile(s):0
Sky conditions: clear
Temperature: 85.3 F (29.6 C)
Dew Point: 59.0 F (15.0 C)
Relative Humidity: 41%
Pressure (altimeter): 30.14 in. Hg (1020 hPa)
ob: KJOT 031815Z AUTO 00000KT 10SM CLR 30/15 A3014 RMK AO2 T02960150
Raw METAR:KJOT 031815Z AUTO 00000KT 10SM CLR 30/15 A3014 RMK AO2 T02960150
cycle: 18
Back to top

Kankakee, Greater Kankakee Airport, IL, United States (KIKK) 41-04-17N 087-50-47W
Wind: from the NE (040 degrees) at 6 MPH (5 KT):0
Visibility: 10 mile(s):0
Sky conditions: partly cloudy
Temperature: 86 F (30 C)
Dew Point: 62 F (17 C)
Relative Humidity: 45%
Pressure (altimeter): 30.14 in. Hg (1020 hPa)
ob: KIKK 031818Z AUTO 04005KT 10SM SCT060 30/17 A3014 RMK AO2
Raw METAR:KIKK 031818Z AUTO 04005KT 10SM SCT060 30/17 A3014 RMK AO2
cycle: 18
Back to top

Morris, Morris Municipal-James R Washburn Field Airport, IL, United States (KC09) 41-25-31N 088-25-07W
Wind: Calm:0
Visibility: 10 mile(s):0
Sky conditions: clear
Temperature: 83.5 F (28.6 C)
Dew Point: 62.1 F (16.7 C)
Relative Humidity: 48%
Pressure (altimeter): 30.13 in. Hg (1020 hPa)
ob: KC09 031815Z AUTO 00000KT 10SM CLR 29/17 A3013 RMK AO2 T02860167
Raw METAR:KC09 031815Z AUTO 00000KT 10SM CLR 29/17 A3013 RMK AO2 T02860167
cycle: 18
Back to top

Peru, Illinois Valley Regional-Walter A Duncan Field Airport, IL, United States (KVYS) 41-21-07N 089-09-11W
Wind: from the ESE (120 degrees) at 5 MPH (4 KT):0
Visibility: 10 mile(s):0
Sky conditions: clear
Temperature: 84.6 F (29.2 C)
Dew Point: 58.8 F (14.9 C)
Relative Humidity: 41%
Pressure (altimeter): 30.13 in. Hg (1020 hPa)
ob: KVYS 031815Z AUTO 12004KT 10SM CLR 29/15 A3013 RMK AO2 T02920149
Raw METAR:KVYS 031815Z AUTO 12004KT 10SM CLR 29/15 A3013 RMK AO2 T02920149
cycle: 18
Back to top

Rochelle, Rochelle Municipal-Koritz Field Airport, IL, United States (KRPJ) 41-53-35N 089-04-42W
Wind: Calm:0
Visibility: 10 mile(s):0
Sky conditions: clear
Temperature: 83.7 F (28.7 C)
Dew Point: 54.5 F (12.5 C)
Relative Humidity: 36%
Pressure (altimeter): 30.14 in. Hg (1020 hPa)
ob: KRPJ 031815Z AUTO 00000KT 10SM CLR 29/13 A3014 RMK AO2 T02870125 TSNO
Raw METAR:KRPJ 031815Z AUTO 00000KT 10SM CLR 29/13 A3014 RMK AO2 T02870125 TSNO
cycle: 18
Back to top